Time;durP1;ratioP1;P1;durP2;ratioP2;P2;SDS_P1;SDS_P2;PMS_P1;PMS_P2;Temp;Humidity;BMP_temperature;BMP_pressure;BME280_temperature;BME280_humidity;BME280_pressure;Samples;Min_cycle;Max_cycle;Signal;HPM_P1;HPM_P2
2022/01/10 00:01:43;;;;;;;2.83;2.07;;;;;;;3.35;100.00;99911.22;5070800;28;20438;-73
2022/01/10 00:04:09;;;;;;;1.27;1.17;;;;;;;3.34;100.00;99917.69;5070652;28;20387;-73
2022/01/10 00:06:35;;;;;;;0.83;0.83;;;;;;;3.35;100.00;99923.91;5070398;28;20175;-73
2022/01/10 00:09:01;;;;;;;0.60;0.60;;;;;;;3.35;100.00;99923.91;5071846;28;20243;-73
2022/01/10 00:11:26;;;;;;;2.07;1.67;;;;;;;3.35;100.00;99923.91;5070458;28;20635;-73
2022/01/10 00:13:52;;;;;;;0.67;0.67;;;;;;;3.36;100.00;99926.31;5070584;28;20171;-74
2022/01/10 00:16:17;;;;;;;0.93;0.93;;;;;;;3.37;100.00;99932.53;5070685;28;20190;-73
2022/01/10 00:18:42;;;;;;;2.53;2.43;;;;;;;3.36;100.00;99936.31;5063647;28;20183;-73
2022/01/10 00:21:08;;;;;;;1.77;1.67;;;;;;;3.37;100.00;99941.44;5080207;28;20214;-73
2022/01/10 00:23:34;;;;;;;4.40;1.37;;;;;;;3.37;100.00;99949.53;5081915;28;20581;-73
2022/01/10 00:26:01;;;;;;;2.83;2.30;;;;;;;3.39;100.00;99952.75;5070173;28;20179;-73
2022/01/10 00:28:26;;;;;;;1.20;1.10;;;;;;;3.38;100.00;99953.03;5070124;28;20179;-73
2022/01/10 00:30:52;;;;;;;2.10;1.90;;;;;;;3.37;100.00;99954.94;5070065;28;20186;-73
2022/01/10 00:33:17;;;;;;;5.90;2.53;;;;;;;3.39;100.00;99957.34;5071485;28;20622;-73
2022/01/10 00:35:42;;;;;;;2.23;2.03;;;;;;;3.37;100.00;99962.22;5071104;28;20174;-73
2022/01/10 00:38:08;;;;;;;5.87;2.63;;;;;;;3.35;100.00;99967.91;5071804;28;20257;-73
2022/01/10 00:40:33;;;;;;;1.30;1.17;;;;;;;3.36;100.00;99972.22;5071306;28;20340;-73
2022/01/10 00:42:58;;;;;;;2.33;1.43;;;;;;;3.37;100.00;99975.72;5070077;28;20179;-72
2022/01/10 00:45:27;;;;;;;2.43;1.67;;;;;;;3.35;100.00;99970.59;5069807;28;20262;-73
2022/01/10 00:47:55;;;;;;;1.10;1.07;;;;;;;3.34;100.00;99971.69;5071101;28;20179;-73
2022/01/10 00:50:21;;;;;;;1.00;0.83;;;;;;;3.34;100.00;99974.38;5070002;28;20178;-73
2022/01/10 00:52:47;;;;;;;1.03;1.03;;;;;;;3.36;100.00;99985.72;5071123;28;20253;-73
2022/01/10 00:55:12;;;;;;;4.23;2.60;;;;;;;3.35;100.00;99992.19;5070919;28;20265;-73
2022/01/10 00:57:38;;;;;;;1.83;1.73;;;;;;;3.36;100.00;99998.41;5069665;28;20183;-73
2022/01/10 01:00:06;;;;;;;1.27;1.20;;;;;;;3.38;100.00;100002.44;5070910;28;20267;-73
2022/01/10 01:02:32;;;;;;;2.70;1.10;;;;;;;3.39;100.00;100004.06;5070988;28;20221;-73
2022/01/10 01:05:05;;;;;;;1.40;1.33;;;;;;;3.38;100.00;100005.16;5069763;28;20202;-73
2022/01/10 01:07:30;;;;;;;2.00;1.50;;;;;;;3.38;100.00;100007.84;5071080;28;20284;-73
2022/01/10 01:10:21;;;;;;;1.03;1.03;;;;;;;3.39;100.00;100017.56;5071093;28;20713;-73
2022/01/10 01:12:55;;;;;;;1.33;1.23;;;;;;;3.38;100.00;100018.66;5070808;28;20273;-73
2022/01/10 01:15:29;;;;;;;3.30;3.00;;;;;;;3.37;100.00;100035.94;5070978;28;20161;-73
2022/01/10 01:18:00;;;;;;;4.77;3.73;;;;;;;3.37;100.00;100035.13;5069509;28;20175;-73
2022/01/10 01:25:49;;;;;;;1.90;1.80;;;;;;;3.34;100.00;100043.78;5070528;28;20268;-73
2022/01/10 01:28:14;;;;;;;0.47;0.30;;;;;;;3.33;100.00;100040.28;5070428;28;20707;-73
2022/01/10 01:30:39;;;;;;;9.80;1.80;;;;;;;3.34;100.00;100044.59;5070469;28;20661;-73
2022/01/10 01:33:05;;;;;;;17.10;2.00;;;;;;;3.35;100.00;100050.78;5070270;28;20557;-73
2022/01/10 01:35:32;;;;;;;4.63;1.87;;;;;;;3.35;100.00;100054.31;5070633;28;20535;-72
2022/01/10 01:37:58;;;;;;;1.77;1.67;;;;;;;3.36;100.00;100055.91;5070672;28;20266;-73
2022/01/10 01:40:27;;;;;;;7.07;2.97;;;;;;;3.37;100.00;100062.13;5070494;28;20206;-73
2022/01/10 01:42:53;;;;;;;2.73;2.13;;;;;;;3.35;100.00;100062.41;5069357;28;20182;-73
2022/01/10 01:45:18;;;;;;;3.33;2.80;;;;;;;3.35;100.00;100065.09;5069410;28;20181;-73
2022/01/10 01:47:44;;;;;;;1.67;1.57;;;;;;;3.36;100.00;100074.81;5070502;28;20196;-73
2022/01/10 01:50:10;;;;;;;2.30;2.00;;;;;;;3.34;100.00;100070.78;5070350;28;20180;-73
2022/01/10 01:52:35;;;;;;;7.10;1.73;;;;;;;3.34;100.00;100078.88;5070543;28;20611;-73
2022/01/10 01:55:03;;;;;;;24.10;3.13;;;;;;;3.32;100.00;100081.81;5070421;28;20397;-73
2022/01/10 01:57:28;;;;;;;8.90;1.60;;;;;;;3.30;100.00;100092.09;5069144;28;20627;-73
2022/01/10 01:59:54;;;;;;;1.40;1.30;;;;;;;3.28;100.00;100089.66;5070438;28;20252;-72
2022/01/10 02:02:20;;;;;;;1.70;1.60;;;;;;;3.27;100.00;100095.34;5070317;28;20178;-72
2022/01/10 02:04:45;;;;;;;2.03;1.83;;;;;;;3.28;100.00;100105.06;5069064;28;20220;-73
2022/01/10 02:07:11;;;;;;;15.17;2.33;;;;;;;3.26;100.00;100096.41;5070513;28;20167;-73
2022/01/10 02:09:37;;;;;;;4.40;2.37;;;;;;;3.25;100.00;100092.91;5069138;28;20753;-73
2022/01/10 02:12:02;;;;;;;9.20;2.83;;;;;;;3.26;100.00;100093.72;5070371;28;20611;-73
2022/01/10 02:14:28;;;;;;;3.57;2.77;;;;;;;3.24;100.00;100094.00;5070049;28;20262;-73
2022/01/10 02:16:56;;;;;;;2.30;2.10;;;;;;;3.23;100.00;100102.38;5068930;28;20190;-73
2022/01/10 02:19:25;;;;;;;4.10;1.53;;;;;;;3.22;100.00;100104.25;5068920;28;20198;-73
2022/01/10 02:21:50;;;;;;;1.03;1.03;;;;;;;3.21;100.00;100118.84;5070348;28;20171;-73
2022/01/10 02:24:16;;;;;;;3.07;2.87;;;;;;;3.18;100.00;100113.16;5070390;28;20194;-73
2022/01/10 02:26:47;;;;;;;3.20;3.00;;;;;;;3.17;100.00;100122.31;5068629;28;20659;-73
2022/01/10 02:29:13;;;;;;;5.73;3.27;;;;;;;3.15;100.00;100124.47;5070114;28;20169;-73
2022/01/10 02:31:40;;;;;;;1.13;1.13;;;;;;;3.13;100.00;100137.44;5070653;28;20179;-72
2022/01/10 02:34:05;;;;;;;6.37;3.70;;;;;;;3.12;100.00;100141.22;5070430;28;20174;-73
2022/01/10 02:36:31;;;;;;;1.20;0.47;;;;;;;3.12;100.00;100154.72;5068703;28;20179;-73
2022/01/10 02:39:00;;;;;;;1.50;1.20;;;;;;;3.14;100.00;100160.66;5069841;28;20178;-73
2022/01/10 02:41:27;;;;;;;1.57;0.97;;;;;;;3.15;100.00;100159.56;5068784;28;20567;-73
2022/01/10 02:43:53;;;;;;;1.53;1.07;;;;;;;3.15;100.00;100162.28;5069246;28;20178;-73
2022/01/10 02:46:19;;;;;;;8.70;2.47;;;;;;;3.17;100.00;100162.81;5073370;28;20543;-72
2022/01/10 02:48:45;;;;;;;0.73;0.63;;;;;;;3.16;100.00;100159.31;5080861;28;20182;-73
2022/01/10 02:51:10;;;;;;;5.40;4.00;;;;;;;3.18;100.00;100178.75;5083623;28;20175;-73
2022/01/10 02:53:36;;;;;;;7.97;2.53;;;;;;;3.16;100.00;100178.19;5073670;28;20186;-73
2022/01/10 02:56:02;;;;;;;0.67;0.67;;;;;;;3.16;100.00;100172.00;5072495;28;20261;-73
2022/01/10 02:58:27;;;;;;;10.67;1.93;;;;;;;3.16;100.00;100180.09;5072016;28;20748;-73
2022/01/10 03:00:53;;;;;;;1.60;1.50;;;;;;;3.18;100.00;100188.72;5072075;28;20279;-73
2022/01/10 03:03:18;;;;;;;0.93;0.93;;;;;;;3.17;100.00;100192.50;5073390;28;20214;-73
2022/01/10 03:05:43;;;;;;;4.60;3.13;;;;;;;3.15;100.00;100189.25;5073193;28;20178;-73
2022/01/10 03:08:09;;;;;;;5.37;1.60;;;;;;;3.16;100.00;100212.47;5072972;28;20622;-73
2022/01/10 03:10:34;;;;;;;3.37;3.07;;;;;;;3.18;100.00;100207.63;5071531;28;20174;-73
2022/01/10 03:13:01;;;;;;;4.57;4.17;;;;;;;3.19;100.00;100209.25;5071689;28;20189;-73
2022/01/10 03:15:27;;;;;;;9.93;4.90;;;;;;;3.20;100.00;100222.50;5072913;28;20638;-73
2022/01/10 03:17:53;;;;;;;6.03;1.37;;;;;;;3.21;100.00;100223.31;5071605;28;20235;-73
2022/01/10 03:20:19;;;;;;;18.53;4.63;;;;;;;3.22;100.00;100231.13;5071539;28;20672;-73
2022/01/10 03:22:44;;;;;;;2.77;2.50;;;;;;;3.23;100.00;100232.75;5071296;28;20293;-73
2022/01/10 03:25:10;;;;;;;3.60;1.73;;;;;;;3.23;100.00;100232.75;5072933;28;20170;-73
2022/01/10 03:27:35;;;;;;;4.53;2.73;;;;;;;3.22;100.00;100235.72;5071342;28;20189;-73
2022/01/10 03:30:00;;;;;;;4.63;3.93;;;;;;;3.20;100.00;100240.56;5071352;28;20186;-73
2022/01/10 03:32:26;;;;;;;17.07;4.43;;;;;;;3.20;100.00;100243.28;5071221;28;20591;-73
2022/01/10 03:34:51;;;;;;;6.40;5.30;;;;;;;3.17;100.00;100239.19;5071139;28;20175;-73
2022/01/10 03:37:17;;;;;;;4.53;3.07;;;;;;;3.15;100.00;100248.66;5072548;28;20609;-73
2022/01/10 03:39:42;;;;;;;1.03;1.00;;;;;;;3.13;100.00;100245.41;5071134;28;20198;-73
2022/01/10 03:42:08;;;;;;;2.03;1.93;;;;;;;3.10;100.00;100249.47;5072544;28;20578;-73
2022/01/10 03:44:33;;;;;;;2.10;1.90;;;;;;;3.08;100.00;100250.81;5070933;28;20183;-73
2022/01/10 03:46:59;;;;;;;5.07;3.43;;;;;;;3.07;100.00;100260.78;5072308;28;20178;-73
2022/01/10 03:49:25;;;;;;;4.50;4.10;;;;;;;3.08;100.00;100269.69;5070806;28;20171;-73
2022/01/10 03:51:50;;;;;;;1.77;1.30;;;;;;;3.09;100.00;100274.00;5072266;28;20213;-72
2022/01/10 03:54:16;;;;;;;5.77;3.93;;;;;;;3.09;100.00;100266.72;5070870;28;20270;-73
2022/01/10 03:56:41;;;;;;;3.10;2.90;;;;;;;3.09;100.00;100272.13;5071844;28;20178;-73
2022/01/10 03:59:06;;;;;;;2.83;2.73;;;;;;;3.10;100.00;100278.34;5072027;28;20175;-73
2022/01/10 04:01:32;;;;;;;4.47;3.33;;;;;;;3.11;100.00;100279.94;5070637;28;20206;-73
2022/01/10 04:03:58;;;;;;;2.27;1.37;;;;;;;3.13;100.00;100288.59;5072297;28;20455;-73
2022/01/10 04:06:24;;;;;;;4.03;3.63;;;;;;;3.11;100.00;100290.75;5070475;28;20614;-73
2022/01/10 04:08:49;;;;;;;1.80;1.70;;;;;;;3.10;100.00;100287.25;5070558;28;20231;-73
2022/01/10 04:11:15;;;;;;;5.47;3.60;;;;;;;3.09;100.00;100293.72;5071771;28;20795;-73
2022/01/10 04:13:41;;;;;;;1.77;1.67;;;;;;;3.07;100.00;100303.16;5071822;28;20178;-74
2022/01/10 04:16:07;;;;;;;12.63;2.43;;;;;;;3.06;100.00;100306.94;5070258;28;20177;-73
2022/01/10 04:18:32;;;;;;;3.67;3.37;;;;;;;3.04;100.00;100309.06;5071593;28;20224;-73
2022/01/10 04:20:58;;;;;;;4.67;3.50;;;;;;;2.99;100.00;100307.16;5071634;28;20206;-73
2022/01/10 04:23:24;;;;;;;6.10;3.40;;;;;;;3.01;100.00;100323.91;5070227;28;20194;-73
2022/01/10 04:25:50;;;;;;;3.07;2.77;;;;;;;2.99;100.00;100329.56;5071347;28;20170;-73
2022/01/10 04:28:15;;;;;;;3.50;3.27;;;;;;;3.02;100.00;100327.41;5071272;28;20175;-73
2022/01/10 04:30:41;;;;;;;3.67;2.70;;;;;;;3.05;100.00;100345.78;5071254;28;20179;-73
2022/01/10 04:33:06;;;;;;;4.03;3.73;;;;;;;3.05;100.00;100337.69;5071515;28;20205;-73
2022/01/10 04:35:32;;;;;;;4.73;2.77;;;;;;;3.06;100.00;100347.41;5071222;28;20182;-73
2022/01/10 04:37:58;;;;;;;9.37;6.07;;;;;;;3.08;100.00;100347.97;5071293;28;20588;-73
2022/01/10 04:40:25;;;;;;;1.13;1.03;;;;;;;3.07;100.00;100352.56;5071422;28;20558;-73
2022/01/10 04:42:51;;;;;;;7.97;3.07;;;;;;;3.07;100.00;100357.94;5069932;28;20178;-73
2022/01/10 04:45:16;;;;;;;3.80;3.47;;;;;;;3.10;100.00;100367.41;5070831;28;20330;-73
2022/01/10 04:47:41;;;;;;;3.33;2.57;;;;;;;3.09;100.00;100363.06;5071210;28;20269;-73
2022/01/10 04:52:45;;;;;;;8.87;3.27;;;;;;;3.12;100.00;100374.16;5071278;28;20171;-73
2022/01/10 04:55:12;;;;;;;1.73;1.63;;;;;;;3.14;100.00;100377.41;5071022;28;20182;-73
2022/01/10 04:57:38;;;;;;;4.50;2.43;;;;;;;3.14;100.00;100374.69;5070838;28;20175;-73
2022/01/10 05:00:04;;;;;;;2.27;1.73;;;;;;;3.16;100.00;100387.91;5069651;28;20213;-73
2022/01/10 05:02:30;;;;;;;5.33;3.13;;;;;;;3.16;100.00;100390.63;5069628;28;20626;-73
2022/01/10 05:04:55;;;;;;;1.80;1.70;;;;;;;3.16;100.00;100390.63;5070780;28;20224;-73
2022/01/10 05:07:21;;;;;;;2.43;2.07;;;;;;;3.16;100.00;100396.84;5071161;28;20163;-73
2022/01/10 05:09:46;;;;;;;3.37;3.00;;;;;;;3.15;100.00;100406.00;5070410;28;20195;-73
2022/01/10 05:12:12;;;;;;;4.07;2.73;;;;;;;3.14;100.00;100403.56;5070773;28;20174;-72
2022/01/10 05:14:37;;;;;;;3.13;2.93;;;;;;;3.11;100.00;100409.50;5070647;28;20171;-73
2022/01/10 05:17:03;;;;;;;1.10;1.07;;;;;;;3.08;100.00;100418.94;5069610;28;20189;-73
2022/01/10 05:19:28;;;;;;;4.33;3.63;;;;;;;3.06;100.00;100429.19;5070627;28;20178;-73
2022/01/10 05:21:54;;;;;;;3.60;3.30;;;;;;;3.05;100.00;100426.75;5070955;28;20166;-73
2022/01/10 05:24:19;;;;;;;8.93;3.77;;;;;;;3.03;100.00;100427.00;5070550;28;20614;-73
2022/01/10 05:26:44;;;;;;;7.87;4.73;;;;;;;3.02;100.00;100427.25;5068894;28;20220;-73
2022/01/10 05:29:10;;;;;;;4.47;3.43;;;;;;;3.01;100.00;100444.53;5070437;28;20178;-73
2022/01/10 05:31:35;;;;;;;3.77;3.47;;;;;;;3.01;100.00;100447.22;5069179;28;20189;-73
2022/01/10 05:34:01;;;;;;;2.77;2.67;;;;;;;2.98;100.00;100457.47;5069212;28;20227;-73
2022/01/10 05:36:27;;;;;;;4.00;3.53;;;;;;;2.97;100.00;100463.94;5069224;28;20261;-73
2022/01/10 05:38:52;;;;;;;10.27;4.03;;;;;;;2.97;100.00;100461.25;5069044;28;20254;-73
2022/01/10 05:41:21;;;;;;;2.23;2.13;;;;;;;2.93;100.00;100464.72;5070519;28;20210;-72
2022/01/10 05:43:46;;;;;;;1.10;1.10;;;;;;;2.92;100.00;100479.31;5070470;28;20623;-73
2022/01/10 05:46:13;;;;;;;3.30;3.07;;;;;;;2.93;100.00;100473.63;5070292;28;20166;-73
2022/01/10 05:48:43;;;;;;;3.93;3.10;;;;;;;2.97;100.00;100490.13;5070401;28;20167;-73
2022/01/10 05:51:09;;;;;;;7.17;6.43;;;;;;;2.98;100.00;100492.56;5069168;28;20175;-73
2022/01/10 05:53:34;;;;;;;3.10;2.80;;;;;;;3.01;100.00;100501.19;5069189;28;20538;-73
2022/01/10 05:55:59;;;;;;;8.13;3.67;;;;;;;3.06;100.00;100512.03;5068855;28;20167;-73
2022/01/10 05:58:27;;;;;;;4.00;3.60;;;;;;;3.04;100.00;100512.31;5069158;28;20174;-73
2022/01/10 06:00:53;;;;;;;2.50;2.00;;;;;;;3.03;100.00;100517.94;5070128;28;20206;-72
2022/01/10 06:03:18;;;;;;;17.53;2.93;;;;;;;2.99;100.00;100518.47;5068634;28;20451;-73
2022/01/10 06:05:43;;;;;;;3.33;2.23;;;;;;;2.98;100.00;100518.72;5068518;28;20305;-73
2022/01/10 06:08:09;;;;;;;2.20;2.00;;;;;;;2.97;100.00;100528.72;5069921;28;20309;-73
2022/01/10 06:10:35;;;;;;;2.53;2.20;;;;;;;2.93;100.00;100530.31;5068761;28;20175;-73
2022/01/10 06:13:00;;;;;;;2.60;2.40;;;;;;;2.92;100.00;100549.47;5070078;28;20178;-73
2022/01/10 06:15:26;;;;;;;1.17;1.10;;;;;;;2.93;100.00;100551.09;5068364;28;20178;-73
2022/01/10 06:17:52;;;;;;;4.90;4.43;;;;;;;2.92;100.00;100558.38;5068690;28;20175;-73
2022/01/10 06:20:18;;;;;;;6.93;3.13;;;;;;;2.91;100.00;100554.03;5070949;28;20280;-73
2022/01/10 06:22:43;;;;;;;4.50;4.10;;;;;;;2.88;100.00;100557.22;5073484;28;20190;-73
2022/01/10 06:25:13;;;;;;;7.87;3.37;;;;;;;2.86;100.00;100569.34;5072584;28;20175;-73
2022/01/10 06:27:39;;;;;;;5.23;3.60;;;;;;;2.80;100.00;100571.22;5071870;28;20204;-73
2022/01/10 06:30:05;;;;;;;2.50;1.57;;;;;;;2.70;100.00;100579.19;5073428;28;20635;-73
2022/01/10 06:32:31;;;;;;;1.97;1.70;;;;;;;2.70;100.00;100579.19;5073404;28;20187;-73
2022/01/10 06:34:57;;;;;;;1.73;1.63;;;;;;;2.66;100.00;100580.78;5070250;28;20593;-73
2022/01/10 06:37:23;;;;;;;2.90;2.70;;;;;;;2.63;100.00;100584.00;5077068;28;20214;-73
2022/01/10 06:39:49;;;;;;;2.37;2.23;;;;;;;2.61;100.00;100595.06;5082503;28;20202;-73
2022/01/10 06:42:14;;;;;;;10.73;1.60;;;;;;;2.63;100.00;100606.41;5093840;28;20541;-72
2022/01/10 06:44:40;;;;;;;2.27;2.17;;;;;;;2.65;100.00;100611.53;5074816;28;20281;-73
2022/01/10 06:47:05;;;;;;;0.70;0.70;;;;;;;2.63;100.00;100614.50;5072066;28;20205;-73
2022/01/10 06:49:31;;;;;;;2.13;1.93;;;;;;;2.59;100.00;100620.63;5072044;28;20638;-73
2022/01/10 06:51:57;;;;;;;2.13;1.93;;;;;;;2.62;100.00;100634.44;5072176;28;20179;-73
2022/01/10 06:54:22;;;;;;;5.73;4.43;;;;;;;2.66;100.00;100637.44;5073310;28;20235;-73
2022/01/10 06:56:47;;;;;;;4.00;3.70;;;;;;;2.70;100.00;100630.44;5073222;28;20171;-73
2022/01/10 06:59:13;;;;;;;2.33;1.80;;;;;;;2.75;100.00;100644.00;5071881;28;20202;-73
2022/01/10 07:01:38;;;;;;;6.47;2.03;;;;;;;2.79;100.00;100655.91;5073121;28;20289;-73
2022/01/10 07:04:04;;;;;;;1.43;1.33;;;;;;;2.81;100.00;100652.97;5072953;28;20191;-73
2022/01/10 07:06:30;;;;;;;3.60;3.40;;;;;;;2.81;100.00;100658.34;5072986;28;20227;-73
2022/01/10 07:08:55;;;;;;;1.83;1.73;;;;;;;2.79;100.00;100663.19;5071969;28;20175;-73
2022/01/10 07:11:20;;;;;;;8.33;4.07;;;;;;;2.81;100.00;100666.44;5071748;28;20174;-72
2022/01/10 07:13:46;;;;;;;1.57;1.47;;;;;;;2.85;100.00;100675.66;5072988;28;20635;-73
2022/01/10 07:16:12;;;;;;;10.40;1.00;;;;;;;2.86;100.00;100691.59;5073036;28;20635;-73
2022/01/10 07:18:38;;;;;;;1.47;1.37;;;;;;;2.89;100.00;100685.69;5072776;28;20261;-72
2022/01/10 07:21:04;;;;;;;0.97;0.97;;;;;;;2.91;100.00;100698.94;5072803;28;20221;-73
2022/01/10 07:23:29;;;;;;;1.37;1.13;;;;;;;2.93;100.00;100705.69;5072719;28;20186;-73
2022/01/10 07:25:55;;;;;;;5.03;2.80;;;;;;;2.97;100.00;100714.91;5071148;28;20184;-72
2022/01/10 07:28:20;;;;;;;1.37;1.27;;;;;;;3.01;100.00;100717.09;5072380;28;20517;-73
2022/01/10 07:30:46;;;;;;;4.33;3.87;;;;;;;3.01;100.00;100730.59;5071905;28;20174;-73
2022/01/10 07:33:12;;;;;;;2.87;2.67;;;;;;;3.03;100.00;100736.53;5072615;28;20187;-73
2022/01/10 07:35:38;;;;;;;3.50;3.20;;;;;;;3.04;100.00;100733.63;5072267;28;20202;-73
2022/01/10 07:38:03;;;;;;;5.90;4.20;;;;;;;3.05;100.00;100754.13;5071223;28;20228;-73
2022/01/10 07:40:29;;;;;;;5.10;1.80;;;;;;;3.07;100.00;100751.19;5071068;28;20207;-73
2022/01/10 07:42:54;;;;;;;6.63;3.23;;;;;;;3.09;100.00;100757.94;5071114;28;20174;-72
2022/01/10 07:45:20;;;;;;;2.87;2.67;;;;;;;3.12;100.00;100760.13;5070884;28;20255;-73
2022/01/10 07:47:45;;;;;;;4.97;2.93;;;;;;;3.14;100.00;100765.28;5072327;28;20178;-73
2022/01/10 07:50:11;;;;;;;4.87;3.87;;;;;;;3.15;100.00;100773.13;5072235;28;20185;-73
2022/01/10 07:52:37;;;;;;;4.77;3.87;;;;;;;3.16;100.00;100769.34;5072235;28;20635;-73
2022/01/10 07:55:04;;;;;;;2.93;2.67;;;;;;;3.17;100.00;100778.25;5072214;28;20635;-73
2022/01/10 07:57:29;;;;;;;1.97;1.67;;;;;;;3.17;100.00;100775.56;5070780;28;20198;-73
2022/01/10 07:59:54;;;;;;;9.17;6.57;;;;;;;3.15;100.00;100775.81;5070728;28;20233;-73
2022/01/10 08:02:24;;;;;;;4.60;4.20;;;;;;;3.16;100.00;100784.72;5070688;28;20593;-73
2022/01/10 08:04:49;;;;;;;2.43;1.20;;;;;;;3.17;100.00;100794.47;5071891;28;20212;-73
2022/01/10 08:07:15;;;;;;;2.20;2.10;;;;;;;3.17;100.00;100795.28;5070494;28;20812;-74
2022/01/10 08:09:40;;;;;;;7.60;5.07;;;;;;;3.19;100.00;100795.88;5070111;28;20682;-73
2022/01/10 08:12:06;;;;;;;2.70;2.37;;;;;;;3.20;100.00;100807.47;5069773;28;20178;-74
2022/01/10 08:14:33;;;;;;;4.93;3.40;;;;;;;3.20;100.00;100812.88;5079691;28;20216;-73
2022/01/10 08:16:59;;;;;;;2.33;2.03;;;;;;;3.21;100.00;100809.09;5083397;28;20502;-73
2022/01/10 08:19:27;;;;;;;6.20;4.20;;;;;;;3.22;100.00;100818.84;5070346;28;20178;-75
2022/01/10 08:21:55;;;;;;;5.63;1.23;;;;;;;3.24;100.00;100830.19;5071680;28;20232;-75
2022/01/10 08:24:22;;;;;;;9.53;3.27;;;;;;;3.23;100.00;100834.78;5071479;28;20213;-73
2022/01/10 08:26:47;;;;;;;5.80;3.83;;;;;;;3.24;100.00;100838.28;5071165;28;20167;-75
2022/01/10 08:29:13;;;;;;;9.43;3.20;;;;;;;3.24;100.00;100832.88;5071266;28;20348;-73
2022/01/10 08:31:38;;;;;;;2.90;1.73;;;;;;;3.26;100.00;100855.03;5071453;28;20608;-73
2022/01/10 08:34:05;;;;;;;4.17;2.97;;;;;;;3.25;100.00;100856.94;5069952;28;20222;-73
2022/01/10 08:36:30;;;;;;;3.93;3.67;;;;;;;3.23;100.00;100855.56;5071314;28;20645;-73
2022/01/10 08:38:56;;;;;;;3.50;3.20;;;;;;;3.24;100.00;100862.59;5069868;28;20178;-74
2022/01/10 08:41:22;;;;;;;5.00;3.93;;;;;;;3.23;100.00;100866.34;5069850;28;20206;-74
2022/01/10 08:43:47;;;;;;;2.77;0.87;;;;;;;3.22;100.00;100862.03;5068934;28;20331;-72
2022/01/10 08:46:13;;;;;;;6.37;5.37;;;;;;;3.23;100.00;100872.56;5069600;28;20186;-73
2022/01/10 08:48:40;;;;;;;4.67;4.37;;;;;;;3.24;100.00;100873.38;5069791;28;20175;-74
2022/01/10 08:51:05;;;;;;;7.97;4.90;;;;;;;3.25;100.00;100877.72;5069761;28;20181;-74
2022/01/10 08:53:31;;;;;;;3.43;3.20;;;;;;;3.26;100.00;100877.47;5069731;28;20179;-73
2022/01/10 08:55:56;;;;;;;8.70;6.30;;;;;;;3.28;100.00;100882.59;5070942;28;20634;-73
2022/01/10 08:58:22;;;;;;;12.60;7.00;;;;;;;3.31;100.00;100892.09;5070902;28;20178;-73
2022/01/10 09:00:48;;;;;;;5.60;5.03;;;;;;;3.31;100.00;100898.31;5070803;28;20228;-73
2022/01/10 09:03:13;;;;;;;8.60;5.57;;;;;;;3.36;100.00;100897.56;5071028;28;20177;-73
2022/01/10 09:05:39;;;;;;;4.40;3.50;;;;;;;3.36;100.00;100898.38;5069180;28;20551;-73
2022/01/10 09:08:05;;;;;;;4.47;4.00;;;;;;;3.37;100.00;100905.41;5070796;28;20217;-76
2022/01/10 09:10:31;;;;;;;3.17;3.00;;;;;;;3.39;100.00;100908.66;5070753;28;20224;-75
2022/01/10 09:12:56;;;;;;;4.17;3.60;;;;;;;3.42;100.00;100921.66;5070716;28;20182;-74
2022/01/10 09:15:22;;;;;;;8.27;4.90;;;;;;;3.44;100.00;100919.53;5070751;28;20174;-76
2022/01/10 09:17:47;;;;;;;18.60;5.83;;;;;;;3.45;100.00;100929.25;5069356;28;20178;-75
2022/01/10 09:20:13;;;;;;;4.07;3.47;;;;;;;3.47;100.00;100935.25;5070693;28;20194;-76
2022/01/10 09:22:38;;;;;;;2.70;2.47;;;;;;;3.47;100.00;100942.50;5070721;28;20548;-75
2022/01/10 09:25:04;;;;;;;11.07;3.73;;;;;;;3.50;100.00;100937.44;5070665;28;20177;-75
2022/01/10 09:27:30;;;;;;;1.00;1.00;;;;;;;3.50;100.00;100937.44;5070694;28;20223;-74
2022/01/10 09:29:55;;;;;;;5.07;2.00;;;;;;;3.50;100.00;100945.53;5070658;28;20182;-75
2022/01/10 09:32:21;;;;;;;6.77;3.90;;;;;;;3.49;100.00;100943.09;5070602;28;20186;-72
2022/01/10 09:34:46;;;;;;;5.57;3.03;;;;;;;3.53;100.00;100957.72;5070433;28;20178;-73
2022/01/10 09:37:11;;;;;;;10.17;6.17;;;;;;;3.53;100.00;100952.31;5070390;28;20610;-73
2022/01/10 09:39:37;;;;;;;11.07;7.07;;;;;;;3.54;100.00;100953.94;5070380;28;20170;-74
2022/01/10 09:42:03;;;;;;;3.30;3.10;;;;;;;3.52;100.00;100946.09;5070119;28;20769;-73
2022/01/10 09:44:28;;;;;;;4.43;3.57;;;;;;;3.52;100.00;100956.09;5070205;28;20178;-72
2022/01/10 09:46:54;;;;;;;13.53;5.57;;;;;;;3.52;100.00;100967.72;5071529;28;20300;-73
2022/01/10 09:49:19;;;;;;;9.03;8.13;;;;;;;3.53;100.00;100974.75;5081000;28;20174;-73
2022/01/10 09:51:45;;;;;;;8.50;4.07;;;;;;;3.57;100.00;100978.56;5075223;28;20297;-73
2022/01/10 09:54:12;;;;;;;8.13;5.27;;;;;;;3.57;100.00;100983.97;5071135;28;20273;-74
2022/01/10 09:56:39;;;;;;;5.30;4.80;;;;;;;3.59;100.00;100984.53;5073730;28;20206;-75
2022/01/10 09:59:06;;;;;;;8.70;3.43;;;;;;;3.62;100.00;100983.25;5074445;28;20183;-72
2022/01/10 10:01:32;;;;;;;4.97;3.70;;;;;;;3.64;100.00;100991.09;5074401;28;20279;-72
2022/01/10 10:04:02;;;;;;;7.60;5.73;;;;;;;3.67;100.00;100990.59;5074481;28;20185;-72
2022/01/10 10:06:29;;;;;;;9.00;6.87;;;;;;;3.70;100.00;101003.56;5073010;28;20174;-72
2022/01/10 10:09:00;;;;;;;5.63;4.80;;;;;;;3.72;100.00;100999.56;5072970;28;20328;-71
2022/01/10 10:11:46;;;;;;;16.00;7.60;;;;;;;3.73;100.00;101006.59;5073253;28;20646;-72
2022/01/10 10:14:17;;;;;;;8.40;4.47;;;;;;;3.78;100.00;101013.97;5074135;28;20204;-72
2022/01/10 10:16:49;;;;;;;21.20;8.60;;;;;;;3.83;100.00;101024.81;5072535;28;20182;-72
2022/01/10 10:19:22;;;;;;;11.73;7.43;;;;;;;3.89;100.00;101026.50;5073930;28;20202;-72
2022/01/10 10:21:49;;;;;;;12.40;7.87;;;;;;;3.95;100.00;101036.31;5072419;28;20677;-72
2022/01/10 10:24:15;;;;;;;7.87;6.47;;;;;;;4.01;100.00;101039.88;5071965;28;20225;-72
2022/01/10 10:26:40;;;;;;;14.80;9.23;;;;;;;4.09;100.00;101037.56;5072073;28;20223;-72
2022/01/10 10:29:06;;;;;;;8.13;7.20;;;;;;;4.17;100.00;101060.63;5073486;28;20174;-73
2022/01/10 10:31:33;;;;;;;11.60;7.93;;;;;;;4.22;100.00;101057.16;5073798;28;20687;-72
2022/01/10 10:34:04;;;;;;;16.10;7.13;;;;;;;4.27;100.00;101060.72;5072279;28;20184;-73
2022/01/10 10:36:35;;;;;;;12.13;7.83;;;;;;;4.27;100.00;101068.84;5073347;28;20178;-72
2022/01/10 10:39:03;;;;;;;10.93;7.57;;;;;;;4.33;100.00;101070.53;5071667;28;20183;-72
2022/01/10 10:41:29;;;;;;;13.43;7.37;;;;;;;4.41;100.00;101082.78;5073488;28;20233;-72
2022/01/10 10:43:55;;;;;;;13.80;7.03;;;;;;;4.43;100.00;101081.47;5071986;28;20692;-72
2022/01/10 10:46:25;;;;;;;11.03;7.00;;;;;;;4.53;100.00;101090.75;5073107;28;20221;-72
2022/01/10 10:48:53;;;;;;;10.40;6.23;;;;;;;4.54;100.00;101093.22;5073693;28;20257;-72
2022/01/10 10:51:19;;;;;;;8.37;6.77;;;;;;;4.53;100.00;101097.00;5070298;28;20225;-73
2022/01/10 10:53:45;;;;;;;11.73;3.33;;;;;;;4.50;100.00;101097.50;5079550;28;20536;-73
2022/01/10 10:56:11;;;;;;;9.47;5.47;;;;;;;4.49;100.00;101101.28;5071535;28;20244;-73
2022/01/10 10:58:39;;;;;;;13.40;6.00;;;;;;;4.54;100.00;101109.44;5078910;28;20224;-72
2022/01/10 11:01:05;;;;;;;6.07;4.23;;;;;;;4.54;100.00;101098.63;5077915;28;20202;-72
2022/01/10 11:03:31;;;;;;;10.43;4.93;;;;;;;4.51;100.00;101106.44;5073181;28;20573;-72
2022/01/10 11:05:59;;;;;;;7.07;4.53;;;;;;;4.58;100.00;101105.16;5071356;28;20174;-73
2022/01/10 11:08:31;;;;;;;12.87;6.50;;;;;;;4.67;100.00;101113.63;5072952;28;20171;-72
2022/01/10 11:10:58;;;;;;;10.20;6.17;;;;;;;4.70;100.00;101113.94;5069875;28;20198;-72
2022/01/10 11:13:25;;;;;;;6.57;5.17;;;;;;;4.77;100.00;101113.72;5071086;28;20221;-72
2022/01/10 11:15:52;;;;;;;12.37;4.20;;;;;;;4.76;100.00;101115.59;5070955;28;20584;-72
2022/01/10 11:18:20;;;;;;;7.17;3.97;;;;;;;4.76;100.00;101115.59;5072773;28;20214;-72
2022/01/10 11:20:48;;;;;;;4.23;3.53;;;;;;;4.75;100.00;101122.09;5071056;28;20202;-72
2022/01/10 11:23:14;;;;;;;8.03;4.33;;;;;;;4.76;100.00;101122.91;5070990;28;20265;-72
2022/01/10 11:25:40;;;;;;;11.47;6.37;;;;;;;4.76;100.00;101129.13;5070961;28;20274;-73
2022/01/10 11:28:11;;;;;;;6.43;3.00;;;;;;;4.75;100.00;101129.41;5072334;28;20179;-72